HomeShort term forecast

Short term forecast

Graphical weather forecast for the next 48 hours for Montreal:
Short term forecast
This weather forecast is automatically refreshed every 3 hours.

Hourly Experimental Forecast for the next 48 hours ®

Overall summary: Mostly cloudy throughout the day.

 Date & Hour   Temp   Feel   Baro   Hum   Speed & Bearing   Wind Gust   Precip.%   Precip.   Visibility   Cloud cover   Conditions 
 23/10/2018 - 23:00  4.6°C  1.5°C  1016.2 hPa  70%  13.5 km/h   31.1 km/h  50%  0.09 mm/h  16.1km  97%  Overcast 
 24/10/2018 - 00:00  4.8°C  1.5°C  1016.0 hPa  73%  15.1 km/h   31.3 km/h  21%  0.13 mm/h  16.1km  82%  Mostly Cloudy 
 24/10/2018 - 01:00  4.6°C  1.0°C  1015.9 hPa  75%  16.5 km/h   34.0 km/h  7%  0.05 mm/h  16.1km  87%  Mostly Cloudy 
 24/10/2018 - 02:00  4.0°C  0.3°C  1016.1 hPa  76%  17.0 km/h   35.6 km/h  11%  0.08 mm/h  16.1km  96%  Overcast 
 24/10/2018 - 03:00  3.5°C  -0.4°C  1016.3 hPa  79%  17.0 km/h   36.8 km/h  26%  0.25 mm/h  16.1km  97%  Overcast 
 24/10/2018 - 04:00  3.2°C  -0.8°C  1016.6 hPa  82%  17.2 km/h   37.2 km/h  39%  0.50 mm/h  16.1km  100%  Overcast 
 24/10/2018 - 05:00  2.7°C  -1.3°C  1016.8 hPa  86%  16.9 km/h   37.3 km/h  37%  0.34 mm/h  16.1km  99%  Overcast 
 24/10/2018 - 06:00  2.3°C  -1.9°C  1017.2 hPa  89%  16.4 km/h   36.9 km/h  40%  0.34 mm/h  13.3km  100%  Overcast 
 24/10/2018 - 07:00  2.0°C  -2.2°C  1017.8 hPa  91%  16.1 km/h   36.1 km/h  47%  0.39 mm/h  6.7km  98%  Overcast 
 24/10/2018 - 08:00  2.0°C  -1.9°C  1018.5 hPa  91%  15.2 km/h   34.5 km/h  44%  0.28 mm/h  2.9km  97%  Foggy 
 24/10/2018 - 09:00  2.5°C  -1.3°C  1019.1 hPa  89%  15.1 km/h   33.4 km/h  40%  0.22 mm/h  6.2km  89%  Mostly Cloudy 
 24/10/2018 - 10:00  3.3°C  -0.3°C  1019.6 hPa  85%  15.0 km/h   30.4 km/h  36%  0.22 mm/h  9.2km  85%  Mostly Cloudy 
 24/10/2018 - 11:00  4.0°C  0.7°C  1020.0 hPa  82%  14.2 km/h   27.2 km/h  29%  0.20 mm/h  13.6km  80%  Mostly Cloudy 
 24/10/2018 - 12:00  5.1°C  2.2°C  1020.0 hPa  76%  13.0 km/h   22.8 km/h  12%  0.10 mm/h  16.1km  71%  Mostly Cloudy 
 24/10/2018 - 13:00  6.2°C  3.6°C  1019.7 hPa  70%  12.4 km/h   20.0 km/h  5%  0.03 mm/h  16.1km  83%  Mostly Cloudy 
 24/10/2018 - 14:00  7.1°C  4.8°C  1019.5 hPa  65%  11.9 km/h   16.4 km/h  4%  0.02 mm/h  16.1km  73%  Mostly Cloudy 
 24/10/2018 - 15:00  7.7°C  5.7°C  1019.5 hPa  62%  11.2 km/h   13.9 km/h  4%  0.04 mm/h  16.1km  69%  Mostly Cloudy 
 24/10/2018 - 16:00  8.1°C  6.4°C  1019.5 hPa  59%  10.2 km/h   12.4 km/h  4%  0.03 mm/h  16.1km  60%  Mostly Cloudy 
 24/10/2018 - 17:00  8.1°C  6.4°C  1019.6 hPa  58%  9.8 km/h   12.1 km/h  4%  0.03 mm/h  16.1km  58%  Partly Cloudy 
 24/10/2018 - 18:00  7.5°C  5.5°C  1019.8 hPa  60%  10.6 km/h   13.9 km/h  3%  0.01 mm/h  16.1km  57%  Partly Cloudy 
 24/10/2018 - 19:00  6.4°C  4.1°C  1020.2 hPa  64%  11.0 km/h   17.8 km/h  0%  --  16.1km  43%  Partly Cloudy 
 24/10/2018 - 20:00  5.5°C  3.1°C  1020.4 hPa  67%  10.7 km/h   21.8 km/h  0%  --  16.1km  39%  Partly Cloudy 
 24/10/2018 - 21:00  4.9°C  2.2°C  1020.4 hPa  69%  11.5 km/h   24.6 km/h  0%  --  16.1km  39%  Partly Cloudy 
 24/10/2018 - 22:00  4.5°C  1.6°C  1020.4 hPa  70%  12.3 km/h   26.7 km/h  0%  --  16.1km  48%  Partly Cloudy 
 24/10/2018 - 23:00  4.2°C  1.1°C  1020.4 hPa  71%  12.9 km/h   27.5 km/h  0%  --  16.1km  52%  Partly Cloudy 
 25/10/2018 - 00:00  4.1°C  1.0°C  1020.3 hPa  71%  12.9 km/h   26.0 km/h  0%  --  16.1km  61%  Mostly Cloudy 
 25/10/2018 - 01:00  3.9°C  0.8°C  1020.2 hPa  72%  12.7 km/h   23.4 km/h  2%  0.01 mm/h  16.1km  64%  Mostly Cloudy 
 25/10/2018 - 02:00  3.7°C  0.7°C  1020.1 hPa  72%  12.4 km/h   21.6 km/h  3%  0.02 mm/h  16.1km  79%  Mostly Cloudy 
 25/10/2018 - 03:00  3.5°C  0.5°C  1020.2 hPa  72%  12.0 km/h   21.9 km/h  3%  0.03 mm/h  16.1km  88%  Mostly Cloudy 
 25/10/2018 - 04:00  3.0°C  -0.2°C  1020.0 hPa  72%  12.5 km/h   23.1 km/h  4%  0.04 mm/h  16.1km  94%  Overcast 
 25/10/2018 - 05:00  2.3°C  -1.2°C  1020.0 hPa  74%  13.0 km/h   24.4 km/h  3%  0.04 mm/h  16.1km  97%  Overcast 
 25/10/2018 - 06:00  1.3°C  -2.6°C  1020.2 hPa  76%  14.1 km/h   25.3 km/h  3%  0.03 mm/h  16.1km  90%  Mostly Cloudy 
 25/10/2018 - 07:00  0.5°C  -3.7°C  1020.4 hPa  77%  14.7 km/h   26.2 km/h  2%  0.01 mm/h  16.1km  82%  Mostly Cloudy 
 25/10/2018 - 08:00  0.1°C  -4.3°C  1020.5 hPa  76%  15.1 km/h   26.5 km/h  0%  --  16.1km  71%  Mostly Cloudy 
 25/10/2018 - 09:00  0.2°C  -4.4°C  1020.1 hPa  73%  16.6 km/h   25.7 km/h  0%  --  16.1km  59%  Partly Cloudy 
 25/10/2018 - 10:00  0.9°C  -3.9°C  1020.1 hPa  67%  18.2 km/h   24.3 km/h  0%  --  16.1km  49%  Partly Cloudy 
 25/10/2018 - 11:00  1.9°C  -2.7°C  1019.9 hPa  60%  19.5 km/h   23.3 km/h  0%  --  16.1km  41%  Partly Cloudy 
 25/10/2018 - 12:00  2.9°C  -1.5°C  1019.5 hPa  53%  20.3 km/h   23.1 km/h  0%  --  16.1km  37%  Partly Cloudy 
 25/10/2018 - 13:00  4.1°C  -0.1°C  1018.9 hPa  47%  20.7 km/h   23.3 km/h  0%  --  16.1km  35%  Partly Cloudy 
 25/10/2018 - 14:00  4.9°C  0.9°C  1018.4 hPa  43%  20.7 km/h   23.7 km/h  0%  --  16.1km  30%  Partly Cloudy 
 25/10/2018 - 15:00  5.3°C  1.4°C  1017.9 hPa  41%  20.6 km/h   24.5 km/h  0%  --  16.1km  21%  Clear 
 25/10/2018 - 16:00  5.3°C  1.5°C  1017.6 hPa  41%  20.2 km/h   25.7 km/h  0%  --  16.1km  9%  Clear 
 25/10/2018 - 17:00  5.1°C  1.2°C  1017.5 hPa  43%  19.5 km/h   26.5 km/h  3%  0.01 mm/h  16.1km  1%  Clear 
 25/10/2018 - 18:00  4.3°C  0.4°C  1017.8 hPa  46%  18.0 km/h   26.7 km/h  0%  --  16.1km  0%  Clear 
 25/10/2018 - 19:00  3.4°C  -0.5°C  1018.4 hPa  50%  16.5 km/h   26.7 km/h  0%  --  16.1km  0%  Clear 
 25/10/2018 - 20:00  2.5°C  -1.4°C  1018.8 hPa  54%  14.9 km/h   25.9 km/h  0%  --  16.1km  0%  Clear 
 25/10/2018 - 21:00  2.0°C  -1.6°C  1018.9 hPa  56%  13.4 km/h   24.0 km/h  0%  --  16.1km  0%  Clear 
 25/10/2018 - 22:00  1.7°C  -1.8°C  1018.9 hPa  58%  12.0 km/h   21.4 km/h  0%  --  16.1km  0%  Clear 
Test

 

Past weather and reports

Past weatherFind in this section the past weather conditions, weather archive, graphics, reports and statistics.

Current conditions

Current weather condition for MontrealAll you need to know about the current weather conditions for Montreal. Weather data is updated every 10 minutes.

Weather forecast

Current Montreal weatherSince 2004, celinium.com website has provided accurate weather forecast for Montreal's island.